Williamstown, Missouri
Current Conditions -  °F | °C
As of 6:15 PM on Wednesday 26 Nov 2014 (Local Time) from KEOK Reporting Station
Light Snow Light Snow  
Wind Chill: 26°   Ceiling: 600
Heat Index: 32°   Visibility: 5mi
Dew Point: 30°   Wind: 7mph
Humidity: 93%   Direction: 30°NNE
Pressure: 30.1"   Gusts: NA
Location:  40.24°N, 91.8°W
Report Text: KEOK 270015Z AUTO 03006KT 5SM -SN BKN006 OVC010 M00/M01 A3010 RMK AO2
Loading
Personal Weather Stations






























Interactive Weather Map New forecast layout! Learn more

10-Day Weather Forecast

Advertisements
Track Severe Weather on mobile